Time;durP1;ratioP1;P1;durP2;ratioP2;P2;SDS_P1;SDS_P2;PMS_P1;PMS_P2;Temp;Humidity;BMP_temperature;BMP_pressure;BME280_temperature;BME280_humidity;BME280_pressure;Samples;Min_cycle;Max_cycle;Signal;HPM_P1;HPM_P2
2023/12/06 00:00:12;;;;;;;98.03;45.47;;;-0.40;99.90;;;;;;5107047;29;20777;-47
2023/12/06 00:02:42;;;;;;;93.37;45.80;;;-0.40;99.90;;;;;;5102244;29;20211;-48
2023/12/06 00:05:13;;;;;;;104.70;46.63;;;-0.30;99.90;;;;;;5103920;29;20951;-47
2023/12/06 00:07:43;;;;;;;101.90;45.07;;;-0.30;99.90;;;;;;5102866;29;20671;-47
2023/12/06 00:10:14;;;;;;;101.60;43.97;;;-0.30;99.90;;;;;;5101494;29;20203;-47
2023/12/06 00:12:45;;;;;;;89.57;44.23;;;-0.30;99.90;;;;;;5119848;28;20617;-47
2023/12/06 00:15:15;;;;;;;99.73;45.20;;;-0.30;99.90;;;;;;5102433;29;20182;-47
2023/12/06 00:17:46;;;;;;;93.90;43.50;;;-0.30;99.90;;;;;;5103311;29;20183;-46
2023/12/06 00:20:17;;;;;;;99.07;46.50;;;-0.30;99.90;;;;;;5101677;29;20187;-48
2023/12/06 00:22:47;;;;;;;102.30;44.60;;;-0.30;99.90;;;;;;5101865;29;20297;-47
2023/12/06 00:25:19;;;;;;;101.73;46.77;;;-0.30;99.90;;;;;;5100557;28;20207;-47
2023/12/06 00:27:49;;;;;;;93.67;43.63;;;-0.30;99.90;;;;;;5101050;29;20197;-48
2023/12/06 00:30:20;;;;;;;103.60;44.30;;;-0.30;99.90;;;;;;5103289;28;20462;-47
2023/12/06 00:32:50;;;;;;;91.83;43.93;;;-0.30;99.90;;;;;;5098807;29;20218;-46
2023/12/06 00:35:21;;;;;;;102.87;45.60;;;-0.30;99.90;;;;;;5101567;29;20187;-46
2023/12/06 00:37:52;;;;;;;88.07;42.63;;;-0.20;99.90;;;;;;5102777;29;20249;-47
2023/12/06 00:40:22;;;;;;;102.57;45.20;;;-0.30;99.90;;;;;;5104881;29;20274;-47
2023/12/06 00:42:53;;;;;;;97.07;43.57;;;-0.30;99.90;;;;;;5103616;29;20713;-48
2023/12/06 00:45:24;;;;;;;93.63;45.17;;;-0.30;99.90;;;;;;5105822;28;20179;-46
2023/12/06 00:47:54;;;;;;;105.03;47.47;;;-0.30;99.90;;;;;;5100163;29;20278;-47
2023/12/06 00:50:25;;;;;;;101.23;44.50;;;-0.30;99.90;;;;;;5101635;29;20199;-47
2023/12/06 00:52:55;;;;;;;96.70;45.23;;;-0.30;99.90;;;;;;5084656;29;20257;-46
2023/12/06 00:55:26;;;;;;;106.73;48.63;;;-0.30;99.90;;;;;;5102784;29;20189;-47
2023/12/06 00:57:57;;;;;;;109.93;44.37;;;-0.30;99.90;;;;;;5103281;28;20515;-47
2023/12/06 01:00:27;;;;;;;92.97;43.67;;;-0.30;99.90;;;;;;5105021;28;20191;-48
2023/12/06 01:02:58;;;;;;;108.70;45.37;;;-0.30;99.90;;;;;;5117491;28;20609;-47
2023/12/06 01:05:28;;;;;;;104.63;46.67;;;-0.30;99.90;;;;;;5114956;28;20190;-47
2023/12/06 01:07:59;;;;;;;99.73;44.97;;;-0.30;99.90;;;;;;5085058;28;20610;-47
2023/12/06 01:10:30;;;;;;;113.93;45.93;;;-0.20;99.90;;;;;;5101864;29;20214;-47
2023/12/06 01:13:00;;;;;;;92.93;46.47;;;-0.20;99.90;;;;;;5101594;29;20206;-48
2023/12/06 01:15:31;;;;;;;104.73;46.53;;;-0.20;99.90;;;;;;5102158;29;20179;-49
2023/12/06 01:18:02;;;;;;;108.50;48.27;;;-0.20;99.90;;;;;;5120936;28;20187;-47
2023/12/06 01:20:33;;;;;;;96.63;45.07;;;-0.20;99.90;;;;;;5103576;28;20212;-48
2023/12/06 01:23:05;;;;;;;108.00;46.60;;;-0.20;99.90;;;;;;5099979;28;20203;-46
2023/12/06 01:25:36;;;;;;;87.07;43.90;;;-0.20;99.90;;;;;;5099816;28;20457;-48
2023/12/06 01:28:06;;;;;;;107.50;49.13;;;-0.20;99.90;;;;;;5101998;28;20435;-48
2023/12/06 01:30:37;;;;;;;98.53;45.00;;;-0.30;99.90;;;;;;5104654;29;20183;-46
2023/12/06 01:33:08;;;;;;;102.33;47.17;;;-0.20;99.90;;;;;;5100721;28;20308;-48
2023/12/06 01:35:38;;;;;;;102.83;47.37;;;-0.20;99.90;;;;;;5117159;28;20207;-47
2023/12/06 01:38:11;;;;;;;101.00;47.50;;;-0.20;99.90;;;;;;5103247;29;20667;-47
2023/12/06 01:40:41;;;;;;;104.73;46.03;;;-0.20;99.90;;;;;;5107714;28;20179;-47
2023/12/06 01:43:12;;;;;;;98.57;42.77;;;-0.20;99.90;;;;;;5085752;28;20442;-47
2023/12/06 01:45:43;;;;;;;104.37;45.03;;;-0.20;99.90;;;;;;5111220;28;20270;-47
2023/12/06 01:48:15;;;;;;;100.27;46.70;;;-0.10;99.90;;;;;;5112459;28;20190;-47
2023/12/06 01:50:47;;;;;;;104.00;47.20;;;-0.20;99.90;;;;;;5098839;29;20685;-47
2023/12/06 01:53:18;;;;;;;118.47;47.87;;;-0.20;99.90;;;;;;5101503;29;20476;-47
2023/12/06 01:55:49;;;;;;;110.50;46.13;;;-0.20;99.90;;;;;;5102751;28;20521;-47
2023/12/06 01:58:20;;;;;;;98.17;46.10;;;-0.20;99.90;;;;;;5118503;28;20657;-46
2023/12/06 02:00:51;;;;;;;103.83;46.60;;;-0.10;99.90;;;;;;5103805;29;20202;-47
2023/12/06 02:03:22;;;;;;;100.70;47.13;;;-0.10;99.90;;;;;;5106216;28;20461;-47
2023/12/06 02:05:54;;;;;;;113.20;45.23;;;-0.10;99.90;;;;;;5105232;29;20451;-47
2023/12/06 02:08:25;;;;;;;99.93;45.70;;;-0.10;99.90;;;;;;5120218;28;20206;-47
2023/12/06 02:10:55;;;;;;;102.63;45.33;;;-0.10;99.90;;;;;;5107330;28;20442;-47
2023/12/06 02:13:27;;;;;;;97.00;44.67;;;-0.10;99.90;;;;;;5112621;28;20318;-47
2023/12/06 02:15:59;;;;;;;88.63;42.70;;;-0.10;99.90;;;;;;5088226;28;20191;-47
2023/12/06 02:18:31;;;;;;;106.10;45.27;;;-0.10;99.90;;;;;;5106960;28;20450;-48
2023/12/06 02:21:02;;;;;;;98.17;46.13;;;-0.10;99.90;;;;;;5124370;28;20955;-48
2023/12/06 02:23:37;;;;;;;112.63;46.17;;;-0.10;99.90;;;;;;5109184;28;20438;-47
2023/12/06 02:26:07;;;;;;;94.97;43.77;;;-0.10;99.90;;;;;;5119838;28;20440;-48
2023/12/06 02:28:38;;;;;;;114.30;46.80;;;-0.10;99.90;;;;;;5107893;28;20475;-49
2023/12/06 02:31:09;;;;;;;93.40;43.83;;;-0.10;99.90;;;;;;5104488;29;20675;-48
2023/12/06 02:33:40;;;;;;;100.83;43.33;;;-0.10;99.90;;;;;;5106040;29;20191;-46
2023/12/06 02:36:12;;;;;;;98.03;45.97;;;-0.10;99.90;;;;;;5103471;28;20205;-48
2023/12/06 02:38:44;;;;;;;93.83;42.43;;;-0.10;99.90;;;;;;5104257;29;20836;-47
2023/12/06 02:41:17;;;;;;;96.87;43.60;;;-0.10;99.90;;;;;;5122663;28;20475;-47
2023/12/06 02:43:47;;;;;;;94.90;43.50;;;-0.10;99.90;;;;;;5103322;28;20457;-48
2023/12/06 02:46:18;;;;;;;90.20;43.37;;;-0.10;99.90;;;;;;5107190;29;20842;-48
2023/12/06 02:48:49;;;;;;;93.23;44.43;;;-0.10;99.90;;;;;;5105837;29;20211;-48
2023/12/06 02:51:22;;;;;;;95.07;45.70;;;-0.10;99.90;;;;;;5105939;29;20215;-48
2023/12/06 02:53:53;;;;;;;100.43;45.73;;;-0.10;99.90;;;;;;5105683;29;20187;-47
2023/12/06 02:56:24;;;;;;;103.03;43.83;;;-0.10;99.90;;;;;;5118186;28;20442;-47
2023/12/06 02:58:55;;;;;;;106.47;43.97;;;-0.10;99.90;;;;;;5103220;28;20198;-48
2023/12/06 03:01:25;;;;;;;99.03;46.10;;;-0.10;99.90;;;;;;5128760;23;20657;-49
2023/12/06 03:03:56;;;;;;;109.77;45.07;;;-0.10;99.90;;;;;;5228505;28;20179;-48
2023/12/06 03:06:27;;;;;;;95.63;44.93;;;-0.10;99.90;;;;;;5230918;28;20674;-48
2023/12/06 03:08:57;;;;;;;103.00;47.93;;;-0.10;99.90;;;;;;5234442;28;20211;-50
2023/12/06 03:11:28;;;;;;;105.67;48.40;;;-0.10;99.90;;;;;;5227092;28;20659;-48
2023/12/06 03:13:58;;;;;;;102.00;43.80;;;-0.10;99.90;;;;;;5214792;28;20244;-50
2023/12/06 03:16:29;;;;;;;100.77;44.70;;;-0.10;99.90;;;;;;5209077;28;20198;-48
2023/12/06 03:19:01;;;;;;;108.60;46.17;;;0.00;99.90;;;;;;5210664;28;20640;-48
2023/12/06 03:21:32;;;;;;;102.13;46.87;;;0.00;99.90;;;;;;5205882;28;20204;-48
2023/12/06 03:24:03;;;;;;;98.43;47.00;;;-0.10;99.90;;;;;;5207992;28;20457;-47
2023/12/06 03:26:33;;;;;;;103.97;45.13;;;-0.10;99.90;;;;;;5212760;28;20184;-47
2023/12/06 03:29:04;;;;;;;99.43;46.03;;;-0.10;99.90;;;;;;5214268;28;20289;-48
2023/12/06 03:31:35;;;;;;;106.23;46.30;;;-0.10;99.90;;;;;;5215603;28;20290;-49
2023/12/06 03:34:05;;;;;;;112.77;46.57;;;-0.10;99.90;;;;;;5220618;28;20175;-47
2023/12/06 03:36:36;;;;;;;117.00;47.43;;;-0.10;99.90;;;;;;5212928;28;20199;-48
2023/12/06 03:39:06;;;;;;;99.77;45.40;;;-0.10;99.90;;;;;;5216905;28;20215;-49
2023/12/06 03:41:37;;;;;;;101.77;45.97;;;-0.10;99.90;;;;;;5206784;28;20606;-48
2023/12/06 03:44:08;;;;;;;98.93;47.97;;;-0.10;99.90;;;;;;5212929;28;20183;-49
2023/12/06 03:46:38;;;;;;;103.37;46.60;;;-0.10;99.90;;;;;;5207879;28;20540;-47
2023/12/06 03:49:09;;;;;;;109.50;46.90;;;-0.10;99.90;;;;;;5207002;28;20236;-48
2023/12/06 03:51:40;;;;;;;111.33;49.53;;;-0.10;99.90;;;;;;5210947;28;20196;-47
2023/12/06 03:54:11;;;;;;;96.80;45.43;;;-0.10;99.90;;;;;;5208566;28;20203;-48
2023/12/06 03:56:42;;;;;;;112.27;48.83;;;-0.10;99.90;;;;;;5212898;28;20411;-47
2023/12/06 03:59:13;;;;;;;106.23;48.70;;;-0.10;99.90;;;;;;5212577;28;20856;-47
2023/12/06 04:01:46;;;;;;;98.30;45.20;;;-0.10;99.90;;;;;;5214617;28;20211;-48
2023/12/06 04:04:17;;;;;;;102.37;48.63;;;0.00;99.90;;;;;;5214182;28;20320;-47
2023/12/06 04:06:48;;;;;;;95.83;46.90;;;0.00;99.90;;;;;;5214448;28;20430;-48
2023/12/06 04:09:18;;;;;;;100.30;45.47;;;-0.10;99.90;;;;;;5213078;28;20238;-49
2023/12/06 04:11:49;;;;;;;122.63;48.93;;;-0.10;99.90;;;;;;5217153;28;20582;-49
2023/12/06 04:14:19;;;;;;;117.20;47.93;;;-0.10;99.90;;;;;;5209172;28;20182;-48
2023/12/06 04:16:50;;;;;;;104.43;49.13;;;0.00;99.90;;;;;;5212632;28;20175;-48
2023/12/06 04:19:21;;;;;;;113.23;50.27;;;-0.10;99.90;;;;;;5208577;28;20187;-47
2023/12/06 04:21:51;;;;;;;113.57;50.17;;;0.00;99.90;;;;;;5210961;28;20206;-50
2023/12/06 04:24:22;;;;;;;103.70;48.17;;;0.00;99.90;;;;;;5210009;28;20310;-50
2023/12/06 04:26:52;;;;;;;102.17;46.83;;;0.00;99.90;;;;;;5218940;28;20186;-48
2023/12/06 04:29:23;;;;;;;126.93;50.90;;;0.10;99.90;;;;;;5207820;28;20200;-48
2023/12/06 04:31:54;;;;;;;117.20;49.37;;;0.00;99.90;;;;;;5208172;28;20496;-48
2023/12/06 04:34:24;;;;;;;112.27;48.90;;;0.10;99.90;;;;;;5217746;28;20209;-48
2023/12/06 04:36:55;;;;;;;111.73;49.67;;;0.10;99.90;;;;;;5213856;28;20179;-48
2023/12/06 04:39:25;;;;;;;114.27;49.97;;;0.10;99.90;;;;;;5213240;28;20172;-48
2023/12/06 04:41:56;;;;;;;123.20;49.33;;;0.10;99.90;;;;;;5214350;28;20210;-48
2023/12/06 04:44:26;;;;;;;108.83;49.20;;;0.00;99.90;;;;;;5215514;28;20179;-47
2023/12/06 04:46:57;;;;;;;115.53;50.07;;;0.00;99.90;;;;;;5207476;28;20192;-48
2023/12/06 04:49:28;;;;;;;129.93;52.03;;;0.10;99.90;;;;;;5211895;28;20329;-50
2023/12/06 04:52:00;;;;;;;115.27;51.30;;;0.10;99.90;;;;;;5217915;28;20199;-49
2023/12/06 04:54:31;;;;;;;119.53;52.23;;;0.00;99.90;;;;;;5216325;28;20660;-47
2023/12/06 04:57:02;;;;;;;117.37;51.20;;;0.10;99.90;;;;;;5215064;28;20429;-48
2023/12/06 04:59:32;;;;;;;125.43;53.30;;;0.00;99.90;;;;;;5211885;28;20647;-48
2023/12/06 05:02:03;;;;;;;125.87;50.90;;;0.10;99.90;;;;;;5210212;28;20215;-47
2023/12/06 05:04:33;;;;;;;115.60;52.37;;;0.10;99.90;;;;;;5209415;28;20180;-47
2023/12/06 05:07:04;;;;;;;116.83;51.83;;;0.00;99.90;;;;;;5206771;28;20596;-48
2023/12/06 05:09:35;;;;;;;109.37;48.30;;;0.10;99.90;;;;;;5209151;28;20291;-50
2023/12/06 05:12:06;;;;;;;109.87;49.57;;;0.00;99.90;;;;;;5214000;28;20257;-49
2023/12/06 05:14:36;;;;;;;100.90;49.73;;;0.10;99.90;;;;;;5212401;28;20210;-48
2023/12/06 05:17:07;;;;;;;104.00;48.30;;;0.00;99.90;;;;;;5210602;28;20183;-47
2023/12/06 05:19:37;;;;;;;108.60;48.80;;;0.00;99.90;;;;;;5213460;28;20702;-48
2023/12/06 05:22:08;;;;;;;102.00;47.03;;;0.10;99.90;;;;;;5208259;28;20204;-48
2023/12/06 05:24:39;;;;;;;112.03;49.03;;;0.00;99.90;;;;;;5216496;28;20235;-48
2023/12/06 05:27:09;;;;;;;135.77;52.80;;;0.00;99.90;;;;;;5208994;28;20171;-51
2023/12/06 05:29:40;;;;;;;105.73;46.53;;;0.10;99.90;;;;;;5201336;28;20199;-47
2023/12/06 05:32:11;;;;;;;115.70;49.03;;;0.10;99.90;;;;;;5203060;28;20199;-47
2023/12/06 05:34:41;;;;;;;112.30;49.03;;;0.10;99.90;;;;;;5214357;28;20175;-48
2023/12/06 05:37:12;;;;;;;95.23;46.33;;;0.10;99.90;;;;;;5203186;28;20176;-48
2023/12/06 05:39:42;;;;;;;111.30;47.10;;;0.10;99.90;;;;;;5208022;28;20185;-48
2023/12/06 05:42:13;;;;;;;99.50;45.17;;;0.10;99.90;;;;;;5208278;28;20214;-47
2023/12/06 05:44:44;;;;;;;104.83;47.00;;;0.10;99.90;;;;;;5211408;28;20183;-48
2023/12/06 05:47:14;;;;;;;106.77;48.00;;;0.10;99.90;;;;;;5210294;28;20207;-49
2023/12/06 05:49:45;;;;;;;107.53;47.40;;;0.10;99.90;;;;;;5203827;28;20612;-49
2023/12/06 05:52:15;;;;;;;118.27;47.73;;;0.10;99.90;;;;;;5210970;28;20200;-48
2023/12/06 05:54:46;;;;;;;122.43;48.77;;;0.10;99.90;;;;;;5201751;28;20193;-47
2023/12/06 05:57:17;;;;;;;113.20;51.17;;;0.10;99.90;;;;;;5206332;28;20304;-51
2023/12/06 05:59:47;;;;;;;112.73;48.73;;;0.10;99.90;;;;;;5209781;28;20191;-48
2023/12/06 06:02:18;;;;;;;111.73;51.07;;;0.10;99.90;;;;;;5212333;28;20268;-47
2023/12/06 06:04:49;;;;;;;111.63;50.83;;;0.10;99.90;;;;;;5206304;28;20662;-49
2023/12/06 06:07:19;;;;;;;113.63;48.13;;;0.10;99.90;;;;;;5204580;28;20226;-47
2023/12/06 06:09:50;;;;;;;113.30;48.60;;;0.10;99.90;;;;;;5208644;28;20199;-50
2023/12/06 06:12:21;;;;;;;128.53;52.27;;;0.10;99.90;;;;;;5205867;28;20567;-49
2023/12/06 06:14:51;;;;;;;118.60;48.80;;;0.10;99.90;;;;;;5202856;28;20575;-46
2023/12/06 06:17:23;;;;;;;118.33;51.50;;;0.20;99.90;;;;;;5208808;28;20229;-52
2023/12/06 06:19:53;;;;;;;107.73;48.97;;;0.20;99.90;;;;;;5208054;28;20186;-47
2023/12/06 06:22:24;;;;;;;119.23;50.70;;;0.20;99.90;;;;;;5203513;28;20457;-48
2023/12/06 06:24:55;;;;;;;119.90;51.37;;;0.20;99.90;;;;;;5204979;28;20179;-48
2023/12/06 06:27:25;;;;;;;114.90;50.93;;;0.20;99.90;;;;;;5208039;28;20596;-49
2023/12/06 06:29:56;;;;;;;111.20;48.47;;;0.20;99.90;;;;;;5212665;28;20287;-48
2023/12/06 06:32:26;;;;;;;128.03;50.83;;;0.20;99.90;;;;;;5208190;28;20195;-48
2023/12/06 06:34:57;;;;;;;116.60;49.77;;;0.20;99.90;;;;;;5216719;28;20183;-48
2023/12/06 06:37:27;;;;;;;121.83;50.13;;;0.20;99.90;;;;;;5205166;28;20181;-51
2023/12/06 06:39:58;;;;;;;105.43;48.60;;;0.20;99.90;;;;;;5203607;28;20646;-49
2023/12/06 06:42:29;;;;;;;107.10;48.77;;;0.20;99.90;;;;;;5213003;28;20285;-49
2023/12/06 06:44:59;;;;;;;107.70;49.40;;;0.20;99.90;;;;;;5204752;28;20184;-48
2023/12/06 06:47:30;;;;;;;114.70;49.27;;;0.20;99.90;;;;;;5212227;28;20227;-49
2023/12/06 06:50:00;;;;;;;118.37;49.20;;;0.20;99.90;;;;;;5209039;28;20513;-48
2023/12/06 06:52:34;;;;;;;118.20;50.40;;;0.10;99.90;;;;;;5212183;28;20195;-49
2023/12/06 06:55:07;;;;;;;131.03;49.23;;;0.20;99.90;;;;;;5217354;28;20234;-47
2023/12/06 06:57:37;;;;;;;112.33;49.33;;;0.10;99.90;;;;;;5210967;28;20509;-48
2023/12/06 07:00:10;;;;;;;99.57;48.27;;;0.20;99.90;;;;;;5214739;28;21050;-49
2023/12/06 07:02:40;;;;;;;106.17;48.10;;;0.20;99.90;;;;;;5208418;28;20591;-47
2023/12/06 07:05:14;;;;;;;107.70;48.93;;;0.20;99.90;;;;;;5211753;28;20439;-49
2023/12/06 07:07:44;;;;;;;109.30;48.47;;;0.20;99.90;;;;;;5214170;28;20767;-48
2023/12/06 07:10:15;;;;;;;116.50;48.03;;;0.20;99.90;;;;;;5211463;28;20466;-49
2023/12/06 07:12:45;;;;;;;115.80;46.37;;;0.20;99.90;;;;;;5211349;28;20203;-49
2023/12/06 07:15:16;;;;;;;94.23;47.47;;;0.20;99.90;;;;;;5212626;28;20207;-48
2023/12/06 07:17:47;;;;;;;120.27;49.53;;;0.20;99.90;;;;;;5209763;28;20962;-48
2023/12/06 07:20:17;;;;;;;116.20;47.37;;;0.30;99.90;;;;;;5210902;28;20191;-49
2023/12/06 07:22:49;;;;;;;109.10;47.80;;;0.20;99.90;;;;;;5208416;28;20676;-47
2023/12/06 07:25:20;;;;;;;104.70;48.00;;;0.30;99.90;;;;;;5213913;28;20183;-46
2023/12/06 07:27:51;;;;;;;125.20;51.93;;;0.30;99.90;;;;;;5216630;28;20472;-49
2023/12/06 07:30:22;;;;;;;123.87;50.60;;;0.20;99.90;;;;;;5213897;28;20833;-49
2023/12/06 07:32:53;;;;;;;112.63;47.50;;;0.20;99.90;;;;;;5213021;28;20454;-47
2023/12/06 07:35:24;;;;;;;112.70;48.97;;;0.20;99.90;;;;;;5209334;28;20659;-47
2023/12/06 07:37:55;;;;;;;128.80;47.70;;;0.20;99.90;;;;;;5219207;28;20221;-49
2023/12/06 07:40:25;;;;;;;121.97;51.37;;;0.20;99.90;;;;;;5214833;28;20434;-49
2023/12/06 07:42:56;;;;;;;124.07;50.63;;;0.20;99.90;;;;;;5213084;28;20736;-47
2023/12/06 07:45:27;;;;;;;124.73;51.23;;;0.20;99.90;;;;;;5212558;28;20522;-47
2023/12/06 07:47:57;;;;;;;113.20;50.80;;;0.20;99.90;;;;;;5213616;28;20648;-48
2023/12/06 07:50:28;;;;;;;117.30;51.13;;;0.30;99.90;;;;;;5215919;28;20226;-51
2023/12/06 07:52:59;;;;;;;110.43;49.10;;;0.20;99.90;;;;;;5213491;28;20253;-48
2023/12/06 07:55:29;;;;;;;116.83;49.63;;;0.20;99.90;;;;;;5207288;28;20230;-48
2023/12/06 07:58:00;;;;;;;123.30;50.67;;;0.20;99.90;;;;;;5211492;28;20178;-49
2023/12/06 08:00:32;;;;;;;114.07;50.70;;;0.20;99.90;;;;;;5210911;28;20233;-51
2023/12/06 08:03:04;;;;;;;107.00;53.43;;;0.20;99.90;;;;;;5203950;28;20222;-52
2023/12/06 08:05:35;;;;;;;121.83;51.67;;;0.20;99.90;;;;;;5208262;28;20453;-50
2023/12/06 08:08:06;;;;;;;127.13;51.77;;;0.30;99.90;;;;;;5204761;28;20430;-50
2023/12/06 08:10:41;;;;;;;109.70;51.77;;;0.20;99.90;;;;;;5207396;28;20542;-53
2023/12/06 08:13:12;;;;;;;122.40;50.53;;;0.20;99.90;;;;;;5204302;28;20775;-53
2023/12/06 08:15:42;;;;;;;115.10;51.63;;;0.20;99.90;;;;;;5205902;28;20432;-50
2023/12/06 08:18:13;;;;;;;125.27;52.60;;;0.20;99.90;;;;;;5201314;28;20187;-54
2023/12/06 08:20:43;;;;;;;129.63;53.87;;;0.20;99.90;;;;;;5205166;28;20178;-50
2023/12/06 08:23:14;;;;;;;135.63;53.07;;;0.20;99.90;;;;;;5201189;28;20225;-52
2023/12/06 08:25:45;;;;;;;113.97;49.33;;;0.30;99.90;;;;;;5209528;28;20190;-51
2023/12/06 08:28:16;;;;;;;122.03;51.87;;;0.30;99.90;;;;;;5212408;28;20176;-53
2023/12/06 08:30:46;;;;;;;121.27;52.70;;;0.30;99.90;;;;;;5203727;28;20207;-50
2023/12/06 08:33:19;;;;;;;129.77;53.77;;;0.20;99.90;;;;;;5215277;28;20461;-51
2023/12/06 08:35:51;;;;;;;127.53;52.00;;;0.30;99.90;;;;;;5207432;28;20267;-50
2023/12/06 08:38:22;;;;;;;126.07;54.87;;;0.30;99.90;;;;;;5202390;28;20430;-52
2023/12/06 08:40:52;;;;;;;123.73;52.27;;;0.30;99.90;;;;;;5202885;28;20445;-50
2023/12/06 08:43:23;;;;;;;122.47;52.67;;;0.30;99.90;;;;;;5200752;28;20694;-51
2023/12/06 08:45:53;;;;;;;127.53;51.90;;;0.30;99.90;;;;;;5208981;28;20543;-51
2023/12/06 08:48:24;;;;;;;129.63;50.07;;;0.40;99.90;;;;;;5202179;28;20177;-52
2023/12/06 08:50:55;;;;;;;126.80;52.07;;;0.40;99.90;;;;;;5205582;28;20177;-51
2023/12/06 08:53:25;;;;;;;126.00;54.60;;;0.40;99.90;;;;;;5209984;28;20282;-50
2023/12/06 08:55:56;;;;;;;118.40;49.47;;;0.40;99.90;;;;;;5202830;28;20234;-50
2023/12/06 08:58:27;;;;;;;112.40;51.40;;;0.50;99.90;;;;;;5200738;28;20214;-50
2023/12/06 09:00:58;;;;;;;113.33;50.47;;;0.60;99.90;;;;;;5204817;28;20855;-50
2023/12/06 09:03:28;;;;;;;117.27;47.70;;;0.60;99.90;;;;;;5217553;23;20706;-53
2023/12/06 09:05:59;;;;;;;111.30;51.13;;;0.60;99.90;;;;;;5186292;28;20185;-54
2023/12/06 09:08:30;;;;;;;104.30;47.50;;;0.60;99.90;;;;;;5206869;28;20187;-53
2023/12/06 09:11:00;;;;;;;108.87;49.63;;;0.70;99.90;;;;;;5192707;28;20185;-54
2023/12/06 09:13:31;;;;;;;109.13;50.67;;;0.70;99.90;;;;;;5205383;28;20733;-54
2023/12/06 09:16:02;;;;;;;105.17;47.90;;;0.70;99.90;;;;;;5215390;28;20186;-52
2023/12/06 09:18:33;;;;;;;111.60;49.57;;;0.70;99.90;;;;;;5185668;28;20283;-53
2023/12/06 09:21:04;;;;;;;124.90;51.20;;;0.70;99.90;;;;;;5205970;28;20189;-55
2023/12/06 09:23:36;;;;;;;129.30;52.20;;;0.70;99.90;;;;;;5189799;28;20291;-54
2023/12/06 09:26:09;;;;;;;112.10;49.23;;;0.70;99.90;;;;;;5206789;28;20479;-55
2023/12/06 09:28:39;;;;;;;112.67;50.70;;;0.70;99.90;;;;;;5202914;28;20465;-54
2023/12/06 09:31:10;;;;;;;117.50;48.50;;;0.70;99.90;;;;;;5211353;28;20478;-52
2023/12/06 09:33:41;;;;;;;114.07;49.80;;;0.70;99.90;;;;;;5186955;28;20227;-55
2023/12/06 09:36:11;;;;;;;104.67;47.73;;;0.70;99.90;;;;;;5203793;28;20199;-54
2023/12/06 09:38:42;;;;;;;113.37;49.20;;;0.70;99.90;;;;;;5203545;28;20275;-52
2023/12/06 09:41:13;;;;;;;106.00;48.10;;;0.60;99.90;;;;;;5187454;28;20685;-54
2023/12/06 09:43:43;;;;;;;108.77;47.63;;;0.60;99.90;;;;;;5186630;28;20205;-54
2023/12/06 09:46:16;;;;;;;113.53;48.53;;;0.70;99.90;;;;;;5205395;28;20194;-54
2023/12/06 09:48:49;;;;;;;116.33;49.43;;;0.60;99.90;;;;;;5187279;28;20621;-55
2023/12/06 09:51:22;;;;;;;114.03;50.10;;;0.60;99.90;;;;;;5209317;28;20433;-53
2023/12/06 09:53:52;;;;;;;112.40;49.27;;;0.60;99.90;;;;;;5194793;28;20829;-53
2023/12/06 09:56:24;;;;;;;119.83;49.80;;;0.60;99.90;;;;;;5205824;28;20462;-54
2023/12/06 09:58:55;;;;;;;123.57;51.30;;;0.60;99.90;;;;;;5197024;28;20187;-55
2023/12/06 10:01:26;;;;;;;120.57;50.13;;;0.60;99.90;;;;;;5190389;28;20433;-55
2023/12/06 10:03:56;;;;;;;120.27;50.47;;;0.60;99.90;;;;;;5206028;28;20666;-55
2023/12/06 10:06:27;;;;;;;128.00;50.80;;;0.60;99.90;;;;;;5191732;28;20559;-54
2023/12/06 10:08:58;;;;;;;120.10;50.87;;;0.70;99.90;;;;;;5187067;28;20396;-54
2023/12/06 10:11:29;;;;;;;111.93;48.33;;;0.60;99.90;;;;;;5192392;28;20535;-55
2023/12/06 10:14:00;;;;;;;110.90;49.43;;;0.60;99.90;;;;;;5203604;28;20184;-53
2023/12/06 10:16:30;;;;;;;98.97;47.60;;;0.60;99.90;;;;;;5204885;28;20206;-53
2023/12/06 10:19:01;;;;;;;118.20;47.77;;;0.70;99.90;;;;;;5206105;28;20187;-55
2023/12/06 10:21:34;;;;;;;100.50;48.30;;;0.60;99.90;;;;;;5191216;28;20210;-55
2023/12/06 10:24:07;;;;;;;115.63;50.90;;;0.60;99.90;;;;;;5192413;28;20444;-55
2023/12/06 10:26:39;;;;;;;124.43;53.50;;;0.60;99.90;;;;;;5186094;28;20956;-55
2023/12/06 10:29:10;;;;;;;125.20;54.40;;;0.60;99.90;;;;;;5188396;28;20476;-56
2023/12/06 10:31:42;;;;;;;138.77;56.13;;;0.60;99.90;;;;;;5190789;28;20442;-54
2023/12/06 10:34:14;;;;;;;137.93;56.30;;;0.60;99.90;;;;;;5194707;28;20205;-54
2023/12/06 10:36:47;;;;;;;137.07;56.30;;;0.70;99.90;;;;;;5191955;28;20445;-55
2023/12/06 10:39:21;;;;;;;152.90;60.20;;;0.70;99.90;;;;;;5207220;28;20458;-53
2023/12/06 10:41:55;;;;;;;167.63;67.00;;;0.70;99.90;;;;;;5199919;28;20451;-54
2023/12/06 10:44:26;;;;;;;173.70;66.17;;;0.70;99.90;;;;;;5192490;28;20437;-56
2023/12/06 10:46:58;;;;;;;207.57;72.07;;;0.70;99.90;;;;;;5219737;28;20779;-56
2023/12/06 10:49:30;;;;;;;167.80;63.40;;;0.70;99.90;;;;;;5194682;28;20211;-55
2023/12/06 10:52:02;;;;;;;198.07;72.90;;;0.70;99.90;;;;;;5195577;28;20449;-55
2023/12/06 10:54:33;;;;;;;184.53;65.90;;;0.60;99.90;;;;;;5176607;28;20925;-54
2023/12/06 10:57:05;;;;;;;183.10;71.87;;;0.60;99.90;;;;;;5188305;28;20449;-56
2023/12/06 10:59:37;;;;;;;221.20;74.70;;;0.50;99.90;;;;;;5191972;28;20256;-56
2023/12/06 11:02:10;;;;;;;203.30;72.20;;;0.50;99.90;;;;;;5198665;28;20471;-57
2023/12/06 11:04:54;;;;;;;275.13;85.50;;;0.60;99.90;;;;;;5190962;28;20443;-54
2023/12/06 11:07:25;;;;;;;222.90;75.37;;;0.50;99.90;;;;;;5210918;28;20512;-56
2023/12/06 11:10:09;;;;;;;234.90;80.80;;;0.60;99.90;;;;;;5191353;28;20554;-53
2023/12/06 11:13:08;;;;;;;200.93;73.30;;;0.70;99.90;;;;;;5188317;28;20209;-56
2023/12/06 11:15:46;;;;;;;225.07;77.03;;;0.70;99.90;;;;;;5202690;28;20945;-55
2023/12/06 11:18:19;;;;;;;249.97;79.00;;;0.70;99.90;;;;;;5190525;28;20805;-56
2023/12/06 11:20:50;;;;;;;243.23;80.33;;;0.70;99.90;;;;;;5191598;28;20996;-56
2023/12/06 11:23:22;;;;;;;249.33;81.83;;;0.70;99.90;;;;;;5208493;28;20448;-55
2023/12/06 11:25:53;;;;;;;229.83;79.93;;;0.70;99.90;;;;;;5175466;28;20561;-55
2023/12/06 11:28:24;;;;;;;262.53;87.70;;;0.70;99.90;;;;;;5208554;28;20470;-54
2023/12/06 11:30:56;;;;;;;260.70;84.10;;;0.70;99.90;;;;;;5205453;28;20439;-53
2023/12/06 11:33:26;;;;;;;242.13;81.47;;;0.70;99.90;;;;;;5190059;28;20227;-54
2023/12/06 11:35:57;;;;;;;252.03;81.90;;;0.70;99.90;;;;;;5205640;28;20494;-53
2023/12/06 11:38:37;;;;;;;254.70;82.00;;;0.70;99.90;;;;;;5212316;28;20545;-52
2023/12/06 11:41:16;;;;;;;260.33;82.00;;;0.70;99.90;;;;;;5187579;28;20661;-53
2023/12/06 11:43:51;;;;;;;248.63;78.87;;;0.70;99.90;;;;;;5190208;28;20442;-55
2023/12/06 11:46:23;;;;;;;236.57;81.67;;;0.70;99.90;;;;;;5190563;28;20483;-53
2023/12/06 11:48:54;;;;;;;256.03;78.30;;;0.70;99.90;;;;;;5196295;28;20451;-52
2023/12/06 11:51:25;;;;;;;236.07;75.93;;;0.70;99.90;;;;;;5190611;28;20554;-54
2023/12/06 11:53:56;;;;;;;240.07;81.80;;;0.70;99.90;;;;;;5188538;28;20434;-54
2023/12/06 11:56:27;;;;;;;236.67;74.83;;;0.70;99.90;;;;;;5207100;28;20788;-54
2023/12/06 11:58:58;;;;;;;272.07;84.53;;;0.60;99.90;;;;;;5183634;28;20196;-53
2023/12/06 12:01:29;;;;;;;265.27;83.20;;;0.60;99.90;;;;;;5205457;28;20200;-55
2023/12/06 12:04:01;;;;;;;281.90;85.50;;;0.60;99.90;;;;;;5190234;28;20962;-54
2023/12/06 12:06:32;;;;;;;265.73;85.10;;;0.70;99.90;;;;;;5205119;28;20441;-54
2023/12/06 12:09:03;;;;;;;269.10;83.70;;;0.70;99.90;;;;;;5189519;28;20455;-54
2023/12/06 12:11:33;;;;;;;262.67;82.40;;;0.70;99.90;;;;;;5188749;28;20183;-55
2023/12/06 12:14:05;;;;;;;264.93;82.27;;;0.70;99.90;;;;;;5190377;28;20438;-55
2023/12/06 12:16:36;;;;;;;265.90;83.00;;;0.70;99.90;;;;;;5207723;28;20176;-55
2023/12/06 12:19:08;;;;;;;258.07;80.77;;;0.70;99.90;;;;;;5193156;28;21030;-53
2023/12/06 12:21:39;;;;;;;250.27;83.30;;;0.70;99.90;;;;;;5167648;28;20184;-55
2023/12/06 12:24:10;;;;;;;271.43;83.80;;;0.70;99.90;;;;;;5208904;28;20802;-52
2023/12/06 12:26:42;;;;;;;278.07;85.33;;;0.70;99.90;;;;;;5208595;28;20502;-52
2023/12/06 12:29:17;;;;;;;249.47;83.00;;;0.70;99.90;;;;;;5187265;28;20225;-53
2023/12/06 12:31:48;;;;;;;263.57;79.90;;;0.80;99.90;;;;;;5194304;28;20432;-54
2023/12/06 12:34:19;;;;;;;312.37;92.00;;;0.80;99.90;;;;;;5197726;28;20980;-54
2023/12/06 12:36:50;;;;;;;266.40;81.93;;;0.70;99.90;;;;;;5189894;28;20439;-54
2023/12/06 12:39:21;;;;;;;269.70;79.87;;;0.80;99.90;;;;;;5189217;28;20946;-52
2023/12/06 12:41:52;;;;;;;304.50;87.53;;;0.80;99.90;;;;;;5212951;28;20208;-55
2023/12/06 12:44:22;;;;;;;277.63;85.63;;;0.70;99.90;;;;;;5192087;28;20289;-54